createdAt,value
2022-08-10T00:00:42.479Z,69.26
2022-08-10T00:02:57.327Z,69.19
2022-08-10T00:05:11.709Z,69.10
2022-08-10T00:07:25.048Z,69.15
2022-08-10T00:09:50.993Z,69.46
2022-08-10T00:12:04.558Z,69.84
2022-08-10T00:14:17.736Z,69.62
2022-08-10T00:16:30.768Z,69.25
2022-08-10T00:18:43.968Z,68.84
2022-08-10T00:20:57.027Z,69.11
2022-08-10T00:23:10.070Z,69.32
2022-08-10T00:25:23.197Z,69.45
2022-08-10T00:27:51.708Z,69.69
2022-08-10T00:30:10.500Z,69.55
2022-08-10T00:32:23.713Z,69.14
2022-08-10T00:34:37.719Z,69.03
2022-08-10T00:36:50.741Z,69.04
2022-08-10T00:39:03.783Z,69.13
2022-08-10T00:41:17.868Z,69.36
2022-08-10T00:43:30.986Z,69.18
2022-08-10T00:45:44.330Z,69.39
2022-08-10T00:48:12.119Z,69.39
2022-08-10T00:50:26.009Z,69.27
2022-08-10T00:52:40.081Z,69.01
2022-08-10T00:54:53.720Z,69.15
2022-08-10T00:57:16.539Z,69.36
2022-08-10T00:59:31.785Z,69.21
2022-08-10T01:02:08.826Z,69.14
2022-08-10T01:04:39.727Z,69.64
2022-08-10T01:06:57.148Z,69.96
2022-08-10T01:09:18.490Z,70.01
2022-08-10T01:12:38.065Z,69.89
2022-08-10T01:14:25.391Z,70.37
2022-08-10T01:16:51.956Z,70.27
2022-08-10T01:19:15.695Z,70.65
2022-08-10T01:22:00.961Z,70.99
2022-08-10T01:24:43.178Z,71.06
2022-08-10T01:27:18.475Z,70.90
2022-08-10T01:30:01.479Z,71.04
2022-08-10T01:32:13.858Z,70.76
2022-08-10T01:34:33.575Z,70.87
2022-08-10T01:36:51.323Z,71.09
2022-08-10T01:39:06.246Z,71.31
2022-08-10T01:41:26.125Z,71.27
2022-08-10T01:43:42.413Z,71.25
2022-08-10T01:45:59.382Z,71.18
2022-08-10T01:48:33.889Z,71.17
2022-08-10T01:50:59.634Z,71.18
2022-08-10T01:53:17.342Z,71.17
2022-08-10T01:55:31.480Z,71.20
2022-08-10T01:57:46.212Z,71.31
2022-08-10T02:00:02.760Z,71.20
2022-08-10T02:02:20.743Z,70.99
2022-08-10T02:04:37.785Z,71.38
2022-08-10T02:06:53.393Z,71.62
2022-08-10T02:09:08.274Z,71.75
2022-08-10T02:11:23.457Z,71.89
2022-08-10T02:13:38.027Z,72.09
2022-08-10T02:16:01.948Z,72.33
2022-08-10T02:18:16.942Z,72.31
2022-08-10T02:20:34.556Z,72.37
2022-08-10T02:22:53.137Z,72.42
2022-08-10T02:25:08.979Z,72.40
2022-08-10T02:27:24.743Z,72.42
2022-08-10T02:29:42.478Z,72.30
2022-08-10T02:31:56.508Z,72.12
2022-08-10T02:34:12.039Z,72.20
2022-08-10T02:36:26.116Z,72.06
2022-08-10T02:38:59.392Z,72.13
2022-08-10T02:42:18.645Z,72.42
2022-08-10T02:45:20.241Z,72.41
2022-08-10T02:46:40.153Z,72.30
2022-08-10T02:49:00.598Z,72.37
2022-08-10T02:52:07.051Z,72.52
2022-08-10T02:54:00.758Z,72.63
2022-08-10T02:56:19.998Z,72.42
2022-08-10T02:58:37.070Z,72.56
2022-08-10T03:00:54.103Z,72.69
2022-08-10T03:03:09.297Z,72.87
2022-08-10T03:05:24.914Z,73.00
2022-08-10T03:07:45.510Z,72.98
2022-08-10T03:09:59.929Z,73.14
2022-08-10T03:12:37.842Z,73.39
2022-08-10T03:14:52.211Z,73.44
2022-08-10T03:17:05.738Z,73.52
2022-08-10T03:20:33.908Z,73.58
2022-08-10T03:21:56.841Z,73.59
2022-08-10T03:24:30.477Z,73.62
2022-08-10T03:26:47.628Z,73.78
2022-08-10T03:29:02.392Z,73.77
2022-08-10T03:31:16.062Z,74.00
2022-08-10T03:33:31.356Z,74.13
2022-08-10T03:36:43.726Z,74.11
2022-08-10T03:38:18.321Z,74.23
2022-08-10T03:40:45.263Z,74.50
2022-08-10T03:43:01.791Z,74.65
2022-08-10T03:45:16.295Z,74.70
2022-08-10T03:47:31.256Z,74.84
2022-08-10T03:49:45.515Z,74.91
2022-08-10T03:51:59.710Z,75.02
2022-08-10T03:54:13.312Z,75.22
2022-08-10T03:56:31.463Z,75.24
2022-08-10T03:58:45.538Z,75.08
2022-08-10T04:01:00.437Z,75.31
2022-08-10T04:03:14.811Z,75.42
2022-08-10T04:05:38.532Z,75.38
2022-08-10T04:07:52.513Z,75.45
2022-08-10T04:10:05.601Z,75.52
2022-08-10T04:12:26.729Z,75.44
2022-08-10T04:14:49.294Z,75.38
2022-08-10T04:17:03.658Z,75.52
2022-08-10T04:19:19.206Z,75.80
2022-08-10T04:21:40.313Z,75.82
2022-08-10T04:23:57.205Z,75.95
2022-08-10T04:26:11.054Z,75.97
2022-08-10T04:28:25.120Z,76.05
2022-08-10T04:30:39.240Z,76.17
2022-08-10T04:32:55.914Z,76.25
2022-08-10T04:35:11.840Z,76.37
2022-08-10T04:37:26.960Z,76.33
2022-08-10T04:39:40.998Z,76.55
2022-08-10T04:41:54.665Z,76.71
2022-08-10T04:44:08.172Z,76.65
2022-08-10T04:46:55.935Z,76.73
2022-08-10T04:49:01.749Z,76.92
2022-08-10T04:51:18.686Z,76.91
2022-08-10T04:53:32.848Z,77.00
2022-08-10T04:55:46.090Z,77.15
2022-08-10T04:57:59.287Z,77.38
2022-08-10T05:00:19.148Z,77.32
2022-08-10T05:02:32.720Z,77.56
2022-08-10T05:04:46.148Z,77.84
2022-08-10T05:06:59.221Z,77.78
2022-08-10T05:09:12.479Z,77.91
2022-08-10T05:11:25.725Z,78.10
2022-08-10T05:13:39.062Z,78.15
2022-08-10T05:15:53.278Z,78.31
2022-08-10T05:18:09.852Z,78.34
2022-08-10T05:20:24.672Z,78.46
2022-08-10T05:22:38.666Z,78.75
2022-08-10T05:24:52.163Z,78.77
2022-08-10T05:27:09.869Z,78.90
2022-08-10T05:29:23.406Z,78.97
2022-08-10T05:31:37.007Z,79.08
2022-08-10T05:33:50.784Z,79.22
2022-08-10T05:36:05.105Z,79.38
2022-08-10T05:38:20.325Z,79.40
2022-08-10T05:40:34.527Z,79.57
2022-08-10T05:42:47.653Z,79.50
2022-08-10T05:45:01.350Z,79.51
2022-08-10T05:47:14.546Z,79.66
2022-08-10T05:49:27.741Z,79.67
2022-08-10T05:51:41.159Z,79.71
2022-08-10T05:54:03.022Z,79.78
2022-08-10T05:56:19.119Z,79.91
2022-08-10T05:58:32.362Z,79.90
2022-08-10T06:00:50.444Z,79.98
2022-08-10T06:03:08.060Z,79.98
2022-08-10T06:05:24.765Z,80.19
2022-08-10T06:07:38.691Z,80.26
2022-08-10T06:09:58.674Z,80.33
2022-08-10T06:12:23.693Z,80.34
2022-08-10T06:15:00.027Z,80.70
2022-08-10T06:17:22.777Z,80.68
2022-08-10T06:19:35.754Z,80.86
2022-08-10T06:21:59.380Z,81.13
2022-08-10T06:24:14.580Z,81.12
2022-08-10T06:26:27.642Z,81.17
2022-08-10T06:29:02.295Z,81.25
2022-08-10T06:31:18.766Z,81.37
2022-08-10T06:33:33.618Z,81.33
2022-08-10T06:35:47.693Z,81.48
2022-08-10T06:38:03.040Z,81.58
2022-08-10T06:40:18.479Z,81.54
2022-08-10T06:42:36.139Z,81.63
2022-08-10T06:44:58.140Z,81.63
2022-08-10T06:47:12.829Z,81.71
2022-08-10T06:49:28.505Z,81.86
2022-08-10T06:51:44.406Z,81.93
2022-08-10T06:54:14.098Z,81.90
2022-08-10T06:56:37.688Z,81.97
2022-08-10T06:58:59.707Z,81.98
2022-08-10T07:01:16.874Z,81.98
2022-08-10T07:03:37.681Z,82.10
2022-08-10T07:05:54.779Z,82.04
2022-08-10T07:08:08.597Z,81.94
2022-08-10T07:10:24.505Z,81.87
2022-08-10T07:12:55.935Z,81.88
2022-08-10T07:15:10.567Z,81.93
2022-08-10T07:17:26.657Z,82.02
2022-08-10T07:19:49.991Z,82.04
2022-08-10T07:22:07.171Z,81.93
2022-08-10T07:24:21.615Z,81.93
2022-08-10T07:26:35.667Z,81.82
2022-08-10T07:28:49.082Z,81.80
2022-08-10T07:31:03.146Z,81.83
2022-08-10T07:33:21.713Z,81.84
2022-08-10T07:35:42.058Z,81.87
2022-08-10T07:37:58.237Z,81.93
2022-08-10T07:40:13.705Z,81.87
2022-08-10T07:42:32.375Z,82.02
2022-08-10T07:44:47.694Z,81.86
2022-08-10T07:47:05.101Z,81.94
2022-08-10T07:49:22.860Z,81.99
2022-08-10T07:51:38.018Z,82.11
2022-08-10T07:53:54.845Z,81.91
2022-08-10T07:56:32.016Z,81.99
2022-08-10T07:58:51.888Z,81.98
2022-08-10T08:01:06.275Z,82.10
2022-08-10T08:03:25.983Z,82.19
2022-08-10T08:05:59.054Z,82.24
2022-08-10T08:08:13.978Z,82.25
2022-08-10T08:10:30.931Z,82.20
2022-08-10T08:12:45.318Z,82.12
2022-08-10T08:15:00.400Z,82.09
2022-08-10T08:17:16.600Z,82.27
2022-08-10T08:19:37.596Z,82.45
2022-08-10T08:24:14.599Z,82.39
2022-08-10T08:24:35.596Z,82.21
2022-08-10T08:26:52.319Z,82.40
2022-08-10T08:29:06.187Z,82.55
2022-08-10T08:31:21.453Z,82.51
2022-08-10T08:33:42.397Z,82.59
2022-08-10T08:35:56.801Z,82.77
2022-08-10T08:38:33.911Z,83.08
2022-08-10T08:40:45.929Z,83.07
2022-08-10T08:43:21.900Z,83.18
2022-08-10T08:46:01.234Z,83.27
2022-08-10T08:48:43.065Z,83.47
2022-08-10T08:51:10.998Z,83.67
2022-08-10T08:54:00.914Z,83.94
2022-08-10T08:56:17.864Z,83.72
2022-08-10T08:58:48.805Z,83.82
2022-08-10T09:01:21.421Z,84.03
2022-08-10T09:04:19.877Z,84.05
2022-08-10T09:07:01.545Z,84.07
2022-08-10T09:09:32.958Z,84.07
2022-08-10T09:12:01.986Z,84.20
2022-08-10T09:14:25.408Z,84.30
2022-08-10T09:16:46.839Z,84.25
2022-08-10T09:19:06.757Z,84.42
2022-08-10T09:21:26.967Z,84.61
2022-08-10T09:24:04.495Z,84.94
2022-08-10T09:26:22.802Z,84.78
2022-08-10T09:28:41.637Z,84.93
2022-08-10T09:36:23.355Z,85.42
2022-08-10T09:36:32.139Z,85.31
2022-08-10T09:38:57.925Z,85.52
2022-08-10T09:41:22.831Z,85.50
2022-08-10T09:43:45.502Z,85.71
2022-08-10T09:45:58.248Z,85.89
2022-08-10T09:48:19.154Z,86.00
2022-08-10T09:51:16.419Z,86.12
2022-08-10T09:53:20.234Z,86.34
2022-08-10T09:56:16.995Z,86.41
2022-08-10T09:58:37.848Z,86.58
2022-08-10T10:00:56.069Z,86.89
2022-08-10T10:03:26.041Z,86.80
2022-08-10T10:05:53.062Z,86.84
2022-08-10T10:08:14.206Z,86.84
2022-08-10T10:10:33.651Z,87.08
2022-08-10T10:12:54.967Z,87.06
2022-08-10T10:15:25.903Z,87.26
2022-08-10T10:17:57.659Z,87.18
2022-08-10T10:20:24.296Z,87.35
2022-08-10T10:22:55.236Z,87.32
2022-08-10T10:25:20.581Z,87.36
2022-08-10T10:27:41.829Z,87.41
2022-08-10T10:30:03.309Z,87.37
2022-08-10T10:32:25.450Z,87.45
2022-08-10T10:34:53.114Z,87.53
2022-08-10T10:37:09.354Z,87.47
2022-08-10T10:39:27.908Z,87.60
2022-08-10T10:41:56.250Z,87.58
2022-08-10T10:44:37.842Z,87.69
2022-08-10T10:47:01.697Z,87.61
2022-08-10T10:49:24.880Z,87.58
2022-08-10T10:51:45.324Z,87.65
2022-08-10T10:54:09.507Z,87.66
2022-08-10T10:56:30.366Z,87.83
2022-08-10T10:58:57.224Z,87.81
2022-08-10T11:01:16.128Z,87.80
2022-08-10T11:04:02.837Z,87.68
2022-08-10T11:06:40.215Z,87.55
2022-08-10T11:08:59.896Z,87.49
2022-08-10T11:11:59.684Z,87.75
2022-08-10T11:14:24.341Z,87.69
2022-08-10T11:16:39.454Z,87.61
2022-08-10T11:19:11.312Z,87.63
2022-08-10T11:21:35.537Z,87.59
2022-08-10T11:24:48.583Z,87.63
2022-08-10T11:26:34.563Z,87.53
2022-08-10T11:28:53.445Z,87.70
2022-08-10T11:31:15.111Z,87.76
2022-08-10T11:34:04.088Z,87.65
2022-08-10T11:36:19.870Z,87.61
2022-08-10T11:38:57.614Z,87.40
2022-08-10T11:42:12.277Z,87.24
2022-08-10T11:44:00.597Z,87.33
2022-08-10T11:46:28.504Z,87.20
2022-08-10T11:48:54.477Z,87.18
2022-08-10T11:51:14.137Z,87.21
2022-08-10T11:53:38.847Z,87.20
2022-08-10T11:55:59.329Z,87.55
2022-08-10T11:58:34.308Z,87.48
2022-08-10T12:00:47.454Z,87.18
2022-08-10T12:03:03.610Z,87.02
2022-08-10T12:05:20.046Z,86.80
2022-08-10T12:10:04.461Z,86.99
2022-08-10T12:10:13.951Z,87.04
2022-08-10T12:12:28.639Z,87.01
2022-08-10T12:14:49.755Z,87.05
2022-08-10T12:17:06.705Z,87.02
2022-08-10T12:19:24.025Z,86.87
2022-08-10T12:21:44.083Z,86.91
2022-08-10T12:24:02.498Z,87.05
2022-08-10T12:26:22.231Z,87.02
2022-08-10T12:28:50.938Z,87.14
2022-08-10T12:31:05.754Z,87.31
2022-08-10T12:33:26.947Z,87.32
2022-08-10T12:36:01.781Z,87.49
2022-08-10T12:38:24.377Z,87.66
2022-08-10T12:40:43.874Z,87.82
2022-08-10T12:43:12.918Z,87.80
2022-08-10T12:45:40.464Z,87.92
2022-08-10T12:48:05.083Z,88.27
2022-08-10T12:50:32.982Z,88.07
2022-08-10T12:52:55.413Z,88.13
2022-08-10T12:55:10.884Z,88.17
2022-08-10T12:57:26.408Z,88.22
2022-08-10T12:59:44.852Z,88.32
2022-08-10T13:02:06.823Z,88.28
2022-08-10T13:04:28.956Z,88.38
2022-08-10T13:06:47.297Z,88.51
2022-08-10T13:09:14.245Z,88.66
2022-08-10T13:12:35.319Z,88.64
2022-08-10T13:14:12.164Z,88.58
2022-08-10T13:16:31.261Z,88.51
2022-08-10T13:18:48.390Z,88.34
2022-08-10T13:21:20.419Z,88.51
2022-08-10T13:23:37.961Z,88.58
2022-08-10T13:25:54.944Z,88.73
2022-08-10T13:28:36.667Z,88.86
2022-08-10T13:30:50.910Z,88.85
2022-08-10T13:33:05.816Z,88.96
2022-08-10T13:35:20.659Z,89.11
2022-08-10T13:37:34.951Z,89.15
2022-08-10T13:39:58.395Z,89.09
2022-08-10T13:42:16.039Z,89.05
2022-08-10T13:44:47.799Z,89.17
2022-08-10T13:47:01.550Z,89.21
2022-08-10T13:49:17.011Z,89.24
2022-08-10T13:51:57.375Z,89.37
2022-08-10T13:54:09.276Z,89.53
2022-08-10T13:56:23.556Z,89.43
2022-08-10T13:58:39.207Z,89.57
2022-08-10T14:00:52.900Z,89.46
2022-08-10T14:03:11.869Z,89.51
2022-08-10T14:05:32.990Z,89.50
2022-08-10T14:08:00.235Z,89.49
2022-08-10T14:10:17.063Z,89.71
2022-08-10T14:12:33.687Z,89.66
2022-08-10T14:14:52.840Z,89.57
2022-08-10T14:17:07.578Z,89.95
2022-08-10T14:19:23.522Z,89.91
2022-08-10T14:21:40.883Z,89.93
2022-08-10T14:23:55.096Z,90.04
2022-08-10T14:26:11.559Z,90.15
2022-08-10T14:28:41.849Z,90.16
2022-08-10T14:31:04.176Z,90.17
2022-08-10T14:33:21.189Z,90.09
2022-08-10T14:36:18.995Z,89.98
2022-08-10T14:38:16.599Z,90.05
2022-08-10T14:40:37.252Z,90.22
2022-08-10T14:42:53.882Z,90.32
2022-08-10T14:45:10.629Z,90.39
2022-08-10T14:47:53.423Z,90.34
2022-08-10T14:50:05.053Z,90.33
2022-08-10T14:52:26.913Z,90.38
2022-08-10T14:54:42.433Z,90.35
2022-08-10T14:57:00.433Z,90.23
2022-08-10T15:00:22.745Z,90.45
2022-08-10T15:02:39.888Z,90.29
2022-08-10T15:04:43.666Z,90.28
2022-08-10T15:07:02.994Z,90.60
2022-08-10T15:09:20.021Z,90.63
2022-08-10T15:12:13.941Z,90.46
2022-08-10T15:14:15.207Z,90.43
2022-08-10T15:16:45.080Z,90.45
2022-08-10T15:18:59.103Z,90.48
2022-08-10T15:21:16.784Z,90.60
2022-08-10T15:23:35.550Z,90.69
2022-08-10T15:26:10.944Z,90.85
2022-08-10T15:28:30.600Z,90.87
2022-08-10T15:31:00.704Z,90.88
2022-08-10T15:33:56.913Z,90.77
2022-08-10T15:36:23.074Z,90.73
2022-08-10T15:38:43.265Z,90.85
2022-08-10T15:40:59.746Z,90.92
2022-08-10T15:43:28.908Z,90.94
2022-08-10T15:45:57.432Z,90.89
2022-08-10T15:48:11.740Z,90.93
2022-08-10T15:50:31.029Z,90.85
2022-08-10T15:53:00.483Z,90.65
2022-08-10T15:55:42.761Z,90.75
2022-08-10T15:58:04.966Z,90.83
2022-08-10T16:00:23.745Z,90.92
2022-08-10T16:02:47.609Z,91.11
2022-08-10T16:05:08.711Z,90.77
2022-08-10T16:07:45.978Z,90.66
2022-08-10T16:10:22.253Z,90.77
2022-08-10T16:12:44.151Z,91.01
2022-08-10T16:15:18.578Z,91.14
2022-08-10T16:17:32.651Z,91.30
2022-08-10T16:20:07.234Z,91.38
2022-08-10T16:22:34.493Z,91.08
2022-08-10T16:24:51.883Z,91.06
2022-08-10T16:27:09.486Z,90.87
2022-08-10T16:29:25.497Z,90.79
2022-08-10T16:31:40.080Z,90.88
2022-08-10T16:33:56.067Z,90.81
2022-08-10T16:36:11.953Z,90.77
2022-08-10T16:38:26.431Z,90.84
2022-08-10T16:40:40.529Z,90.71
2022-08-10T16:42:54.522Z,90.67
2022-08-10T16:45:12.190Z,91.03
2022-08-10T16:47:31.771Z,90.84
2022-08-10T16:49:46.376Z,90.86
2022-08-10T16:52:00.468Z,90.51
2022-08-10T16:54:15.106Z,90.40
2022-08-10T16:56:38.177Z,90.30
2022-08-10T16:59:03.999Z,90.36
2022-08-10T17:01:21.979Z,90.44
2022-08-10T17:04:07.835Z,90.57
2022-08-10T17:06:17.175Z,90.54
2022-08-10T17:08:31.817Z,90.79
2022-08-10T17:10:45.995Z,90.78
2022-08-10T17:13:01.064Z,90.81
2022-08-10T17:15:16.601Z,90.82
2022-08-10T17:17:38.370Z,90.66
2022-08-10T17:19:51.794Z,90.94
2022-08-10T17:22:09.933Z,91.08
2022-08-10T17:24:25.016Z,91.13
2022-08-10T17:26:41.297Z,91.32
2022-08-10T17:28:58.654Z,91.56
2022-08-10T17:31:23.992Z,91.66
2022-08-10T17:33:51.412Z,91.55
2022-08-10T17:36:08.826Z,91.11
2022-08-10T17:38:25.058Z,91.08
2022-08-10T17:40:48.703Z,90.92
2022-08-10T17:43:05.954Z,90.81
2022-08-10T17:45:47.502Z,90.44
2022-08-10T17:48:03.726Z,90.68
2022-08-10T17:50:17.580Z,90.42
2022-08-10T17:52:34.284Z,90.65
2022-08-10T17:54:48.637Z,90.52
2022-08-10T17:57:04.291Z,90.45
2022-08-10T17:59:19.012Z,90.24
2022-08-10T18:01:41.598Z,89.89
2022-08-10T18:04:15.891Z,90.69
2022-08-10T18:06:29.866Z,91.15
2022-08-10T18:08:51.132Z,91.66
2022-08-10T18:11:08.855Z,91.71
2022-08-10T18:13:25.387Z,91.51
2022-08-10T18:15:40.445Z,91.46
2022-08-10T18:17:59.203Z,90.92
2022-08-10T18:20:14.802Z,89.09
2022-08-10T18:22:29.244Z,89.39
2022-08-10T18:24:44.170Z,90.52
2022-08-10T18:26:59.969Z,89.74
2022-08-10T18:29:18.901Z,87.99
2022-08-10T18:31:34.446Z,86.72
2022-08-10T18:33:59.459Z,85.83
2022-08-10T18:36:15.516Z,84.53
2022-08-10T18:38:30.596Z,83.58
2022-08-10T18:40:46.847Z,83.52
2022-08-10T18:43:01.570Z,83.55
2022-08-10T18:45:21.237Z,82.57
2022-08-10T18:47:59.627Z,82.46
2022-08-10T18:50:19.023Z,82.60
2022-08-10T18:52:35.273Z,82.31
2022-08-10T18:54:53.365Z,82.04
2022-08-10T18:57:22.693Z,81.21
2022-08-10T19:00:07.521Z,80.80
2022-08-10T19:02:38.409Z,80.88
2022-08-10T19:05:06.824Z,80.97
2022-08-10T19:08:02.846Z,80.79
2022-08-10T19:10:37.604Z,80.77
2022-08-10T19:12:58.756Z,80.55
2022-08-10T19:15:21.428Z,80.50
2022-08-10T19:18:03.418Z,79.97
2022-08-10T19:20:22.656Z,81.11
2022-08-10T19:22:45.408Z,81.27
2022-08-10T19:25:06.816Z,81.11
2022-08-10T19:27:25.543Z,80.99
2022-08-10T19:30:11.000Z,80.55
2022-08-10T19:32:32.132Z,80.55
2022-08-10T19:35:01.608Z,80.57
2022-08-10T19:37:32.557Z,80.46
2022-08-10T19:40:12.775Z,80.51
2022-08-10T19:42:34.128Z,80.80
2022-08-10T19:45:01.440Z,80.48
2022-08-10T19:47:24.038Z,80.09
2022-08-10T19:49:46.074Z,79.50
2022-08-10T19:52:10.687Z,78.54
2022-08-10T19:54:35.146Z,78.64
2022-08-10T19:57:01.803Z,78.39
2022-08-10T20:00:15.705Z,75.94
2022-08-10T20:02:02.696Z,76.47
2022-08-10T20:04:29.559Z,76.76
2022-08-10T20:06:47.345Z,76.14
2022-08-10T20:09:04.118Z,76.82
2022-08-10T20:11:46.500Z,77.20
2022-08-10T20:14:03.217Z,75.81
2022-08-10T20:16:23.045Z,76.34
2022-08-10T20:18:40.443Z,76.14
2022-08-10T20:20:57.490Z,75.81
2022-08-10T20:23:19.941Z,75.58
2022-08-10T20:25:32.045Z,75.95
2022-08-10T20:27:59.934Z,75.48
2022-08-10T20:30:17.405Z,75.76
2022-08-10T20:32:35.685Z,75.26
2022-08-10T20:34:52.824Z,73.97
2022-08-10T20:37:08.966Z,73.50
2022-08-10T20:40:00.328Z,72.80
2022-08-10T20:42:20.503Z,72.35
2022-08-10T20:44:44.650Z,72.72
2022-08-10T20:47:05.174Z,73.05
2022-08-10T20:49:31.060Z,73.52
2022-08-10T20:51:58.384Z,72.82
2022-08-10T20:54:14.658Z,71.98
2022-08-10T20:56:38.622Z,71.56
2022-08-10T20:59:15.514Z,71.60
2022-08-10T21:02:07.420Z,71.40
2022-08-10T21:04:23.790Z,71.15
2022-08-10T21:06:58.062Z,70.82
2022-08-10T21:09:22.970Z,69.18
2022-08-10T21:11:49.370Z,69.78
2022-08-10T21:14:31.415Z,70.05
2022-08-10T21:17:06.131Z,70.46
2022-08-10T21:19:52.267Z,70.29
2022-08-10T21:22:17.047Z,69.28
2022-08-10T21:24:34.480Z,68.64
2022-08-10T21:26:57.899Z,69.12
2022-08-10T21:29:37.999Z,68.29
2022-08-10T21:32:22.364Z,68.29
2022-08-10T21:34:54.194Z,68.77
2022-08-10T21:37:14.445Z,68.98
2022-08-10T21:39:43.516Z,68.49
2022-08-10T21:42:29.188Z,68.84
2022-08-10T21:45:13.907Z,68.30
2022-08-10T21:48:07.312Z,67.34
2022-08-10T21:50:48.552Z,67.43
2022-08-10T21:53:44.741Z,67.44
2022-08-10T21:56:24.347Z,67.68
2022-08-10T21:58:58.803Z,67.26
2022-08-10T22:01:39.453Z,67.82
2022-08-10T22:04:10.420Z,68.00
2022-08-10T22:06:50.791Z,67.83
2022-08-10T22:09:28.164Z,67.81
2022-08-10T22:12:25.036Z,67.02
2022-08-10T22:15:03.418Z,67.47
2022-08-10T22:18:00.851Z,66.91
2022-08-10T22:20:27.073Z,64.38
2022-08-10T22:23:03.329Z,64.39
2022-08-10T22:26:00.207Z,65.75
2022-08-10T22:28:34.068Z,65.80
2022-08-10T22:31:31.090Z,65.70
2022-08-10T22:34:13.921Z,65.63
2022-08-10T22:37:07.820Z,65.34
2022-08-10T22:40:07.252Z,64.60
2022-08-10T22:42:59.371Z,64.62
2022-08-10T22:45:37.654Z,64.73
2022-08-10T22:48:07.603Z,65.22
2022-08-10T22:50:24.810Z,64.16
2022-08-10T22:52:57.050Z,64.31
2022-08-10T22:55:38.400Z,63.16
2022-08-10T22:58:10.890Z,63.76
2022-08-10T23:00:30.740Z,63.95
2022-08-10T23:02:47.994Z,63.93
2022-08-10T23:05:06.300Z,64.13
2022-08-10T23:07:42.248Z,63.77
2022-08-10T23:10:04.880Z,64.11
2022-08-10T23:12:24.062Z,64.13
2022-08-10T23:14:41.878Z,64.60
2022-08-10T23:18:01.002Z,64.65
2022-08-10T23:20:12.940Z,64.97
2022-08-10T23:22:35.142Z,64.24
2022-08-10T23:24:52.381Z,64.09
2022-08-10T23:27:10.361Z,62.80
2022-08-10T23:29:29.063Z,62.95
2022-08-10T23:32:06.925Z,61.05
2022-08-10T23:34:25.731Z,60.29
2022-08-10T23:36:41.006Z,59.84
2022-08-10T23:39:24.375Z,60.39
2022-08-10T23:41:35.646Z,61.42
2022-08-10T23:44:04.138Z,60.20
2022-08-10T23:46:18.977Z,60.01
2022-08-10T23:48:35.779Z,60.19
2022-08-10T23:50:58.497Z,60.14
2022-08-10T23:53:13.822Z,60.66
2022-08-10T23:55:33.948Z,60.18
2022-08-10T23:58:06.931Z,60.56
